M I D A S
Marine Information and Data Acquisition System
Tripno 1153 of the Zeeleeuw from 2006-08-25 06:30:52 to 2006-08-25 13:53:13
Back to CruiseResearch ActivitiesStationsMapUnderway DataData graphs

EquipmentUnitsComment
TimeDGPSUTC
LatitudeDGPSDM.mWGS84
LongitudeDGPSDM.mWGS84
HeadingGyrodeg 
SOGDGPSknotsSpeed over ground
COGDGPSdegCourse over ground
DepthEcho soundermeters200 kHz
Missing or incorrect values are displayed as -999
Navigation data collected by the RV Zeeleeuw from 2006-08-25 06:23:06 to 2006-08-25 14:06:03
                                                                                    Next 1000 lines
Time Latitude Longitude Heading SOG COG Depth
2006-08-25 06:23:16 51°13.603 2°56.092 108.8 1.2 292 5.4
2006-08-25 06:23:21 51°13.604 2°56.088 108.8 1.7 295 5.1
2006-08-25 06:23:26 51°13.605 2°56.084 108.8 2 291 5.5
2006-08-25 06:23:32 51°13.606 2°56.078 108.9 2.3 293 -999
2006-08-25 06:23:37 51°13.607 2°56.073 109 2.4 290 -999
2006-08-25 06:23:42 51°13.609 2°56.067 109.3 2.6 292 -999
2006-08-25 06:23:47 51°13.61 2°56.062 109.5 2.7 290 -999
2006-08-25 06:23:52 51°13.612 2°56.056 109.5 2.8 293 -999
2006-08-25 06:23:56 51°13.613 2°56.052 109.6 2.8 292 -999
2006-08-25 06:24:02 51°13.615 2°56.044 109.6 2.9 292 -999
2006-08-25 06:24:07 51°13.616 2°56.038 109.5 3.1 291 -999
2006-08-25 06:24:11 51°13.617 2°56.032 109.5 3.3 290 -999
2006-08-25 06:24:17 51°13.619 2°56.024 109.7 3.3 290 -999
2006-08-25 06:24:22 51°13.621 2°56.017 110.3 3.5 289 -999
2006-08-25 06:24:27 51°13.623 2°56.009 111.1 3.5 289 -999
2006-08-25 06:24:32 51°13.624 2°56.002 112.4 3.6 290 -999
2006-08-25 06:24:37 51°13.626 2°55.994 114.2 3.7 291 -999
2006-08-25 06:24:42 51°13.628 2°55.986 115.6 3.9 293 -999
2006-08-25 06:24:47 51°13.631 2°55.978 118.1 4 295 -999
2006-08-25 06:24:52 51°13.633 2°55.97 120 4.1 297 -999
2006-08-25 06:24:57 51°13.636 2°55.962 120.9 4.1 299 -999
2006-08-25 06:25:02 51°13.639 2°55.954 121.2 4.2 299 -999
2006-08-25 06:25:06 51°13.641 2°55.947 121.2 4.2 300 -999
2006-08-25 06:25:12 51°13.645 2°55.938 120.7 4.3 299 -999
2006-08-25 06:25:17 51°13.648 2°55.929 120.2 4.3 299 -999
2006-08-25 06:25:22 51°13.65 2°55.921 119.7 4.3 299 -999
2006-08-25 06:25:26 51°13.653 2°55.914 118.6 4.4 298 -999
2006-08-25 06:25:32 51°13.656 2°55.904 117.4 4.4 298 -999
2006-08-25 06:25:37 51°13.659 2°55.895 116.1 4.3 296 -999
2006-08-25 06:25:42 51°13.661 2°55.887 114.7 4.2 295 -999
2006-08-25 06:25:47 51°13.663 2°55.879 113.5 4.1 294 -999
2006-08-25 06:25:52 51°13.665 2°55.871 112.1 4 293 -999
2006-08-25 06:25:57 51°13.667 2°55.863 110.6 3.9 291 -999
2006-08-25 06:26:02 51°13.669 2°55.855 109.1 3.8 291 -999
2006-08-25 06:26:06 51°13.671 2°55.849 107.8 3.7 289 -999
2006-08-25 06:26:12 51°13.672 2°55.84 106.6 3.7 289 -999
2006-08-25 06:26:17 51°13.674 2°55.832 105.6 3.6 287 -999
2006-08-25 06:26:22 51°13.675 2°55.825 104.3 3.5 287 -999
2006-08-25 06:26:27 51°13.677 2°55.817 103.2 3.5 286 -999
2006-08-25 06:26:32 51°13.678 2°55.81 102.3 3.5 285 -999
2006-08-25 06:26:36 51°13.679 2°55.804 101 3.5 284 -999
2006-08-25 06:26:42 51°13.68 2°55.795 99.7 3.5 283 -999
2006-08-25 06:26:47 51°13.681 2°55.788 98.3 3.4 281 -999
2006-08-25 06:26:52 51°13.681 2°55.781 96.6 3.3 279 -999
2006-08-25 06:26:56 51°13.682 2°55.775 95.3 3.1 278 -999
2006-08-25 06:27:02 51°13.683 2°55.768 93.8 3 277 -999
2006-08-25 06:27:06 51°13.683 2°55.763 92.6 2.8 276 9.7
2006-08-25 06:27:11 51°13.683 2°55.758 90.9 2.5 274 9.8
2006-08-25 06:27:16 51°13.683 2°55.753 89.1 2.1 274 10
2006-08-25 06:27:21 51°13.683 2°55.75 86.3 1.7 271 10.1
2006-08-25 06:27:26 51°13.683 2°55.747 84.1 1.3 271 10.3
2006-08-25 06:27:31 51°13.683 2°55.745 80.5 1 269 10.4
2006-08-25 06:27:36 51°13.683 2°55.744 77.3 0.6 276 10.4
2006-08-25 06:27:41 51°13.683 2°55.744 73.8 0.4 286 10.5
2006-08-25 06:27:46 51°13.684 2°55.744 70.6 0.2 328 10.5
2006-08-25 06:27:51 51°13.684 2°55.744 66.4 0.3 30 10.5
2006-08-25 06:27:56 51°13.685 2°55.745 61.6 0.5 34 10.5
2006-08-25 06:28:01 51°13.686 2°55.746 55.6 0.8 38 10.7
2006-08-25 06:28:06 51°13.687 2°55.747 50 1 35 10.7
2006-08-25 06:28:11 51°13.689 2°55.749 44 1.2 32 10.6
2006-08-25 06:28:16 51°13.691 2°55.75 38.7 1.5 22 10.9
2006-08-25 06:28:20 51°13.693 2°55.751 30.5 1.8 18 11.4
2006-08-25 06:28:26 51°13.696 2°55.752 22.9 2 11 11.9
2006-08-25 06:28:30 51°13.699 2°55.752 15 2.3 3 12.2
2006-08-25 06:28:36 51°13.703 2°55.751 7.2 2.6 355 12.3
2006-08-25 06:28:41 51°13.707 2°55.75 359.3 2.8 349 12.8
2006-08-25 06:28:46 51°13.711 2°55.748 351.3 3.1 342 12.7
2006-08-25 06:28:51 51°13.716 2°55.744 344.9 3.5 335 11.8
2006-08-25 06:28:56 51°13.72 2°55.739 337.8 4 329 11
2006-08-25 06:29:01 51°13.725 2°55.734 332.2 4.3 326 10.7
2006-08-25 06:29:06 51°13.731 2°55.728 330.7 4.7 325 10.3
2006-08-25 06:29:11 51°13.737 2°55.721 330.4 5 325 9.4
2006-08-25 06:29:16 51°13.743 2°55.714 330.3 5.2 325 9.3
2006-08-25 06:29:21 51°13.749 2°55.707 329.7 5.5 324 9.2
2006-08-25 06:29:26 51°13.756 2°55.7 329.4 5.8 324 9.2
2006-08-25 06:29:31 51°13.762 2°55.692 330 5.9 325 9.2
2006-08-25 06:29:36 51°13.77 2°55.685 330.9 6.2 326 9.2
2006-08-25 06:29:41 51°13.777 2°55.677 332 6.3 329 9.3
2006-08-25 06:29:46 51°13.785 2°55.67 333.2 6.4 329 9.3
2006-08-25 06:29:51 51°13.793 2°55.663 334.1 6.6 331 9.5
2006-08-25 06:29:56 51°13.801 2°55.656 335.3 6.7 333 9.5
2006-08-25 06:30:01 51°13.81 2°55.65 337 6.8 335 9.8
2006-08-25 06:30:06 51°13.819 2°55.644 337.7 6.9 335 9.8
2006-08-25 06:30:10 51°13.826 2°55.639 337.7 6.9 335 9.9
2006-08-25 06:30:16 51°13.836 2°55.631 337.9 7 336 9.9
2006-08-25 06:30:21 51°13.845 2°55.625 338.2 7.1 336 9.6
2006-08-25 06:30:26 51°13.855 2°55.618 338.3 7.3 336 9.3
2006-08-25 06:30:31 51°13.864 2°55.612 338.6 7.4 336 9.1
2006-08-25 06:30:36 51°13.874 2°55.605 338.7 7.5 336 9
2006-08-25 06:30:40 51°13.881 2°55.599 338.9 7.5 336 9.1
2006-08-25 06:30:46 51°13.893 2°55.591 338.4 7.6 335 9.5
2006-08-25 06:30:51 51°13.902 2°55.584 338.2 7.7 336 9.6
2006-08-25 06:30:56 51°13.912 2°55.577 338.6 7.7 336 9.7
2006-08-25 06:31:01 51°13.922 2°55.57 338.7 7.8 336 9.9
2006-08-25 06:31:06 51°13.932 2°55.563 338.7 7.8 336 9.4
2006-08-25 06:31:11 51°13.942 2°55.556 339.3 7.8 337 9.9
2006-08-25 06:31:16 51°13.952 2°55.549 339.6 7.9 336 9.9
2006-08-25 06:31:21 51°13.962 2°55.542 339.4 7.9 336 10.1
2006-08-25 06:31:26 51°13.972 2°55.535 339.3 7.9 336 9.7
2006-08-25 06:31:31 51°13.982 2°55.528 339.3 7.9 336 9.6
2006-08-25 06:31:36 51°13.992 2°55.52 339 7.9 335 9.6
2006-08-25 06:31:41 51°14.002 2°55.514 338.9 7.9 335 9.5
2006-08-25 06:31:46 51°14.012 2°55.506 339.4 7.9 337 9.5
2006-08-25 06:31:51 51°14.022 2°55.499 339.6 7.9 336 9.4
2006-08-25 06:31:56 51°14.032 2°55.492 339.3 7.8 336 9.4
2006-08-25 06:32:00 51°14.04 2°55.487 338.9 7.8 336 9.4
2006-08-25 06:32:06 51°14.052 2°55.478 338.9 7.8 336 9.4
2006-08-25 06:32:10 51°14.059 2°55.473 339 7.8 336 9.5
2006-08-25 06:32:16 51°14.071 2°55.464 339 7.7 336 9.4
2006-08-25 06:32:21 51°14.081 2°55.458 339 7.7 336 9.4
2006-08-25 06:32:26 51°14.091 2°55.451 339 7.7 336 9.4
2006-08-25 06:32:31 51°14.1 2°55.444 339.1 7.6 336 9.5
2006-08-25 06:32:37 51°14.112 2°55.435 339.1 7.6 336 9.4
2006-08-25 06:32:41 51°14.119 2°55.429 337.5 7.6 334 9.5
2006-08-25 06:32:46 51°14.128 2°55.422 336.6 7.5 333 9.4
2006-08-25 06:32:50 51°14.136 2°55.416 336.3 7.5 333 9.4
2006-08-25 06:32:56 51°14.147 2°55.406 335.8 7.5 332 9.4
2006-08-25 06:33:01 51°14.156 2°55.398 334.8 7.5 331 9.4
2006-08-25 06:33:06 51°14.165 2°55.39 333.7 7.5 330 9.4
2006-08-25 06:33:10 51°14.172 2°55.383 332.4 7.5 328 9.3
2006-08-25 06:33:16 51°14.182 2°55.372 331 7.5 327 9.4
2006-08-25 06:33:21 51°14.191 2°55.362 328.7 7.5 325 9.3
2006-08-25 06:33:26 51°14.199 2°55.352 326.2 7.5 322 -999
2006-08-25 06:33:31 51°14.207 2°55.342 325.1 7.5 322 9.3
2006-08-25 06:33:36 51°14.215 2°55.331 324.4 7.5 320 9.3
2006-08-25 06:33:41 51°14.223 2°55.32 322.9 7.5 319 9.4
2006-08-25 06:33:46 51°14.231 2°55.309 321.8 7.5 318 9.4
2006-08-25 06:33:50 51°14.237 2°55.3 320.7 7.7 316 -999
2006-08-25 06:33:56 51°14.246 2°55.285 319.5 7.8 315 9.4
2006-08-25 06:34:01 51°14.254 2°55.272 318.4 8 314 9.4
2006-08-25 06:34:06 51°14.261 2°55.259 317 8.2 313 9.3
2006-08-25 06:34:11 51°14.269 2°55.245 316.3 8.3 312 9.4
2006-08-25 06:34:16 51°14.277 2°55.231 316.1 8.4 312 9.4
2006-08-25 06:34:21 51°14.285 2°55.217 315 8.5 311 9.3
2006-08-25 06:34:26 51°14.292 2°55.202 313.6 8.7 310 9.2
2006-08-25 06:34:30 51°14.298 2°55.19 313.3 8.8 309 9.2
2006-08-25 06:34:36 51°14.308 2°55.172 314.1 8.9 311 9.1
2006-08-25 06:34:41 51°14.316 2°55.157 314.2 9 310 9.1
2006-08-25 06:34:46 51°14.324 2°55.142 313.8 9.1 311 9.2
2006-08-25 06:34:50 51°14.331 2°55.129 313.2 9.2 309 9.3
2006-08-25 06:34:56 51°14.341 2°55.11 312.8 9.4 309 9.3
2006-08-25 06:35:01 51°14.349 2°55.093 312.8 9.6 309 9.4
2006-08-25 06:35:06 51°14.357 2°55.077 313.5 9.7 310 9.4
2006-08-25 06:35:10 51°14.365 2°55.064 314.8 9.8 310 9.7
2006-08-25 06:35:16 51°14.375 2°55.043 315.2 9.9 310 9.7
2006-08-25 06:35:21 51°14.384 2°55.026 314.5 10.1 309 9.8
2006-08-25 06:35:26 51°14.393 2°55.008 314.8 10.3 309 9.7
2006-08-25 06:35:30 51°14.401 2°54.994 315.7 10.3 310 9.7
2006-08-25 06:35:36 51°14.411 2°54.972 314.2 10.4 307 9.9
2006-08-25 06:35:41 51°14.419 2°54.952 310.7 10.5 303 9.9
2006-08-25 06:35:46 51°14.426 2°54.933 309.2 10.6 303 9.8
2006-08-25 06:35:51 51°14.434 2°54.913 308.7 10.6 302 9.9
2006-08-25 06:35:56 51°14.442 2°54.893 308.8 10.6 302 9.9
2006-08-25 06:36:01 51°14.449 2°54.872 307.7 10.7 298 9.7
2006-08-25 06:36:06 51°14.456 2°54.85 306.9 10.9 297 9.6
2006-08-25 06:36:11 51°14.462 2°54.828 304.9 11 294 9.8
2006-08-25 06:36:16 51°14.468 2°54.805 304.1 11.1 295 9.7
2006-08-25 06:36:21 51°14.475 2°54.782 304 11.4 294 9.7
2006-08-25 06:36:26 51°14.481 2°54.759 304.7 11.4 296 9.7
2006-08-25 06:36:31 51°14.488 2°54.736 304.8 11.5 294 9.7
2006-08-25 06:36:36 51°14.494 2°54.713 304 11.5 294 9.6
2006-08-25 06:36:40 51°14.5 2°54.694 303.4 11.6 294 9.5
2006-08-25 06:36:45 51°14.506 2°54.671 303.8 11.7 295 9.7
2006-08-25 06:36:51 51°14.514 2°54.643 303.7 11.6 293 9.6
2006-08-25 06:36:56 51°14.522 2°54.619 304.3 11.7 297 9.5
2006-08-25 06:37:00 51°14.527 2°54.6 304.8 11.8 295 9.6
2006-08-25 06:37:06 51°14.536 2°54.573 304.7 11.8 297 9.5
2006-08-25 06:37:11 51°14.543 2°54.549 305.2 11.9 296 9.6
2006-08-25 06:37:16 51°14.55 2°54.525 304.7 11.8 295 9.5
2006-08-25 06:37:21 51°14.556 2°54.501 303.8 11.9 294 9.7
2006-08-25 06:37:26 51°14.564 2°54.477 303.5 12 295 9.7
2006-08-25 06:37:31 51°14.57 2°54.453 304.1 12 295 9.8
2006-08-25 06:37:36 51°14.578 2°54.429 304.6 12.1 296 9.7
2006-08-25 06:37:41 51°14.585 2°54.405 305.5 12 297 9.7
2006-08-25 06:37:46 51°14.593 2°54.382 306.4 12 297 9.7
2006-08-25 06:37:51 51°14.6 2°54.357 305.8 12.1 296 9.9
2006-08-25 06:37:56 51°14.607 2°54.333 304.1 12.1 294 9.6
2006-08-25 06:38:01 51°14.614 2°54.309 303.7 12.1 295 9.8
2006-08-25 06:38:06 51°14.621 2°54.284 303.6 12.2 294 9.8
2006-08-25 06:38:11 51°14.628 2°54.26 304.1 12.1 295 9.5
2006-08-25 06:38:16 51°14.634 2°54.235 302.5 12.2 292 9.8
2006-08-25 06:38:20 51°14.64 2°54.214 301.7 12.2 292 10.1
2006-08-25 06:38:25 51°14.646 2°54.191 301.7 12.1 292 10.2
2006-08-25 06:38:31 51°14.652 2°54.162 301.4 12 292 9.9
2006-08-25 06:38:36 51°14.659 2°54.135 300.4 12.1 291 10.2
2006-08-25 06:38:40 51°14.664 2°54.116 300.5 12.1 293 9.9
2006-08-25 06:38:46 51°14.672 2°54.087 301.9 12.1 294 10.1
2006-08-25 06:38:51 51°14.679 2°54.063 302.9 12 295 10
2006-08-25 06:38:56 51°14.686 2°54.038 304.1 12 295 10
2006-08-25 06:39:01 51°14.694 2°54.014 304 12.1 296 10.2
2006-08-25 06:39:06 51°14.701 2°53.991 304.1 12 295 10.1
2006-08-25 06:39:11 51°14.708 2°53.967 304 11.9 296 9.9
2006-08-25 06:39:16 51°14.715 2°53.943 304.1 11.9 296 9.7
2006-08-25 06:39:21 51°14.723 2°53.919 304.5 12 296 9.6
2006-08-25 06:39:26 51°14.73 2°53.896 304 11.9 296 9.5
2006-08-25 06:39:31 51°14.737 2°53.872 304 11.9 296 9.4
2006-08-25 06:39:36 51°14.745 2°53.849 304.6 11.9 296 9.3
2006-08-25 06:39:41 51°14.751 2°53.825 304.1 11.9 295 9.1
2006-08-25 06:39:46 51°14.758 2°53.801 303.2 11.9 295 9.1
2006-08-25 06:39:51 51°14.765 2°53.777 302.6 11.8 295 9.1
2006-08-25 06:39:56 51°14.772 2°53.753 302.4 11.9 294 9.3
2006-08-25 06:40:01 51°14.779 2°53.729 301.9 11.9 294 9.2
2006-08-25 06:40:06 51°14.786 2°53.706 301.7 11.9 295 9.2
2006-08-25 06:40:11 51°14.793 2°53.682 302.1 11.9 295 9.2
2006-08-25 06:40:16 51°14.8 2°53.658 303.1 11.9 296 9.1
2006-08-25 06:40:21 51°14.807 2°53.634 303.6 11.9 296 9.2
2006-08-25 06:40:26 51°14.814 2°53.611 304.1 11.9 296 9.1
2006-08-25 06:40:30 51°14.82 2°53.592 304.4 11.9 296 9.3
2006-08-25 06:40:36 51°14.829 2°53.563 304.8 11.9 296 9.2
2006-08-25 06:40:41 51°14.837 2°53.54 305.1 11.9 297 9.2
2006-08-25 06:40:46 51°14.844 2°53.516 305.3 11.9 297 9.2
2006-08-25 06:40:50 51°14.85 2°53.498 305.9 11.9 297 9.6
2006-08-25 06:40:56 51°14.858 2°53.47 306.1 11.9 296 9.4
2006-08-25 06:41:01 51°14.866 2°53.446 305.3 11.8 296 9.3
2006-08-25 06:41:06 51°14.873 2°53.423 305.4 11.9 297 9.3
2006-08-25 06:41:10 51°14.878 2°53.404 305.3 11.8 296 9.2
2006-08-25 06:41:16 51°14.887 2°53.375 305.4 11.9 296 9.4
2006-08-25 06:41:21 51°14.895 2°53.351 304.9 12 295 9.5
2006-08-25 06:41:25 51°14.9 2°53.333 304.8 11.8 295 9.3
2006-08-25 06:41:31 51°14.908 2°53.304 303.6 11.9 294 9.2
2006-08-25 06:41:36 51°14.915 2°53.279 304 11.9 295 9.3
2006-08-25 06:41:41 51°14.922 2°53.256 304.1 12 294 9.2
2006-08-25 06:41:46 51°14.929 2°53.231 303.9 12 295 9.2
2006-08-25 06:41:51 51°14.935 2°53.207 303.3 12 293 9.3
2006-08-25 06:41:55 51°14.94 2°53.187 302.4 12 293 9.4
2006-08-25 06:42:01 51°14.948 2°53.157 302.5 12 293 9.4
2006-08-25 06:42:06 51°14.955 2°53.133 302.7 12.1 293 9.6
2006-08-25 06:42:10 51°14.96 2°53.113 303 12.1 294 9.6
2006-08-25 06:42:16 51°14.969 2°53.084 303.3 12.1 294 9.7
2006-08-25 06:42:21 51°14.976 2°53.06 303.4 12.2 294 9.8
2006-08-25 06:42:26 51°14.983 2°53.035 303.9 12.1 294 9.6
2006-08-25 06:42:31 51°14.99 2°53.01 303.7 12.2 294 9.7
2006-08-25 06:42:36 51°14.996 2°52.987 303.9 12.2 295 9.6
2006-08-25 06:42:41 51°15.004 2°52.961 304.2 12.2 294 9.7
2006-08-25 06:42:46 51°15.011 2°52.937 304.4 12.1 295 9.5
2006-08-25 06:42:51 51°15.017 2°52.913 304.2 12.1 294 9.7
2006-08-25 06:42:56 51°15.024 2°52.887 303.1 12.2 293 10
2006-08-25 06:43:01 51°15.03 2°52.863 301.5 12.2 291 10
2006-08-25 06:43:06 51°15.036 2°52.837 299.6 12.2 290 9.9
2006-08-25 06:43:11 51°15.041 2°52.811 298.5 12.3 290 9.6
2006-08-25 06:43:16 51°15.047 2°52.786 298.6 12.3 290 9.8
2006-08-25 06:43:20 51°15.052 2°52.765 298.7 12.3 290 9.7
2006-08-25 06:43:26 51°15.059 2°52.734 299.1 12.3 290 9.7
2006-08-25 06:43:30 51°15.063 2°52.713 299.4 12.4 290 9.6
2006-08-25 06:43:36 51°15.07 2°52.684 299.2 12.3 290 9.6
2006-08-25 06:43:41 51°15.076 2°52.657 299.4 12.3 290 9.8
2006-08-25 06:43:46 51°15.082 2°52.632 299.6 12.4 290 9.8
2006-08-25 06:43:50 51°15.087 2°52.612 299.6 12.3 291 9.7
2006-08-25 06:43:56 51°15.094 2°52.581 299.7 12.4 289 9.8
2006-08-25 06:44:01 51°15.099 2°52.556 298.8 12.2 290 9.6
2006-08-25 06:44:06 51°15.105 2°52.529 297.9 12.3 289 9.7
2006-08-25 06:44:11 51°15.11 2°52.504 298 12.3 289 9.8
2006-08-25 06:44:16 51°15.116 2°52.478 297.8 12.4 289 10
2006-08-25 06:44:21 51°15.12 2°52.453 296.8 12.4 287 9.6
2006-08-25 06:44:26 51°15.126 2°52.426 296.2 12.2 288 9.7
2006-08-25 06:44:30 51°15.13 2°52.406 296.9 12.3 288 9.9
2006-08-25 06:44:36 51°15.137 2°52.376 297.8 12.2 290 9.8
2006-08-25 06:44:41 51°15.143 2°52.349 298.5 12.3 289 10
2006-08-25 06:44:46 51°15.148 2°52.325 299.3 12.2 291 9.8
2006-08-25 06:44:51 51°15.155 2°52.299 299.7 12.1 290 10.1
2006-08-25 06:44:56 51°15.161 2°52.274 300.2 12.2 290 10.1
2006-08-25 06:45:01 51°15.167 2°52.249 300.3 12.1 292 9.9
2006-08-25 06:45:06 51°15.173 2°52.224 300.5 12.2 291 10.2
2006-08-25 06:45:11 51°15.179 2°52.199 300.3 12.3 291 10.1
2006-08-25 06:45:16 51°15.185 2°52.173 300.3 12.2 291 10.1
2006-08-25 06:45:21 51°15.191 2°52.148 300.5 12.3 291 10.2
2006-08-25 06:45:26 51°15.197 2°52.123 300.3 12.3 290 10.3
2006-08-25 06:45:31 51°15.202 2°52.097 300.2 12.2 290 10.4
2006-08-25 06:45:36 51°15.208 2°52.071 299.4 12.2 290 10.5
2006-08-25 06:45:41 51°15.214 2°52.046 299.7 12.3 291 10.6
2006-08-25 06:45:46 51°15.22 2°52.021 300.4 12.3 291 10.6
2006-08-25 06:45:51 51°15.226 2°51.995 299.6 12.4 289 10.6
2006-08-25 06:45:56 51°15.231 2°51.969 298.7 12.3 289 10.6
2006-08-25 06:46:01 51°15.237 2°51.943 298.4 12.3 288 10.8
2006-08-25 06:46:06 51°15.243 2°51.918 298.3 12.4 289 10.7
2006-08-25 06:46:11 51°15.248 2°51.891 298 12.4 289 10.8
2006-08-25 06:46:16 51°15.254 2°51.866 298.3 12.4 289 10.9
2006-08-25 06:46:20 51°15.258 2°51.845 298.3 12.3 288 10.9
2006-08-25 06:46:26 51°15.263 2°51.813 296.8 12.4 286 11
2006-08-25 06:46:31 51°15.267 2°51.786 295 12.4 284 11
2006-08-25 06:46:35 51°15.271 2°51.766 293.8 12.4 284 11
2006-08-25 06:46:41 51°15.276 2°51.733 292.4 12.4 282 11.1
2006-08-25 06:46:46 51°15.279 2°51.706 291 12.5 282 11
2006-08-25 06:46:51 51°15.283 2°51.679 290.8 12.4 282 11.1
2006-08-25 06:46:55 51°15.285 2°51.657 291 12.5 281 11.1
2006-08-25 06:47:02 51°15.289 2°51.619 290.3 12.5 280 11.1
2006-08-25 06:47:06 51°15.291 2°51.597 286.9 12.5 276 11.1
2006-08-25 06:47:11 51°15.292 2°51.569 284 12.6 274 11.3
2006-08-25 06:47:16 51°15.292 2°51.542 281.6 12.6 271 11.2
2006-08-25 06:47:21 51°15.291 2°51.513 277.3 12.7 268 11.1
2006-08-25 06:47:26 51°15.29 2°51.485 274.3 12.7 267 11.3
2006-08-25 06:47:31 51°15.288 2°51.457 272.1 12.8 264 11.2
2006-08-25 06:47:36 51°15.285 2°51.428 270.1 12.9 263 11.3
2006-08-25 06:47:41 51°15.283 2°51.401 269.3 12.8 263 11.2
2006-08-25 06:47:46 51°15.28 2°51.372 268.7 12.8 260 11.4
2006-08-25 06:47:51 51°15.277 2°51.345 267 12.9 261 11.3
2006-08-25 06:47:56 51°15.274 2°51.317 267 12.9 261 11.3
2006-08-25 06:48:01 51°15.272 2°51.289 267.2 12.9 261 11.4
2006-08-25 06:48:06 51°15.269 2°51.26 267.9 12.8 262 11.3
2006-08-25 06:48:11 51°15.267 2°51.232 268.9 12.9 263 11.5
2006-08-25 06:48:16 51°15.265 2°51.205 270.1 12.8 264 11.2
2006-08-25 06:48:21 51°15.264 2°51.176 270.7 12.8 264 11.4
2006-08-25 06:48:26 51°15.262 2°51.148 271.1 12.8 264 11.4
2006-08-25 06:48:31 51°15.26 2°51.119 271.4 12.8 265 11.4
2006-08-25 06:48:36 51°15.258 2°51.091 272.3 12.8 265 11.4
2006-08-25 06:48:41 51°15.257 2°51.063 271.9 12.9 265 11.4
2006-08-25 06:48:46 51°15.256 2°51.035 272 12.9 266 11.5
2006-08-25 06:48:51 51°15.254 2°51.006 272.8 12.8 266 11.4
2006-08-25 06:48:56 51°15.254 2°50.978 273.3 12.8 268 11.5
2006-08-25 06:49:01 51°15.253 2°50.949 274.4 12.8 268 11.5
2006-08-25 06:49:06 51°15.252 2°50.921 274.3 12.9 267 11.4
2006-08-25 06:49:11 51°15.252 2°50.892 274.3 13 268 11.5
2006-08-25 06:49:16 51°15.25 2°50.865 274.6 12.8 267 11.3
2006-08-25 06:49:21 51°15.25 2°50.836 274.1 12.8 268 11.6
2006-08-25 06:49:26 51°15.248 2°50.808 273.8 12.8 266 11.6
2006-08-25 06:49:31 51°15.247 2°50.779 273.5 12.9 266 11.7
2006-08-25 06:49:36 51°15.246 2°50.751 272.6 12.9 266 11.6
2006-08-25 06:49:41 51°15.245 2°50.722 272.9 12.8 267 11.7
2006-08-25 06:49:46 51°15.244 2°50.694 273.1 12.8 267 11.7
2006-08-25 06:49:51 51°15.243 2°50.665 273.9 12.8 268 11.7
2006-08-25 06:49:56 51°15.243 2°50.638 274.3 12.8 268 11.7
2006-08-25 06:50:01 51°15.241 2°50.609 273.7 12.7 267 11.5
2006-08-25 06:50:06 51°15.24 2°50.581 273.4 12.8 266 11.8
2006-08-25 06:50:11 51°15.239 2°50.554 272.9 12.7 265 11.4
2006-08-25 06:50:16 51°15.238 2°50.525 271.6 12.7 265 11.7
2006-08-25 06:50:21 51°15.236 2°50.498 271.6 12.8 265 11.6
2006-08-25 06:50:26 51°15.234 2°50.469 272.1 12.7 266 11.6
2006-08-25 06:50:30 51°15.233 2°50.447 273.3 12.7 266 11.8
2006-08-25 06:50:36 51°15.233 2°50.413 273.7 12.7 267 11.8
2006-08-25 06:50:41 51°15.232 2°50.386 273.9 12.6 268 11.6
2006-08-25 06:50:46 51°15.231 2°50.357 273.9 12.6 267 11.7
2006-08-25 06:50:51 51°15.23 2°50.329 274.1 12.7 269 12
2006-08-25 06:50:56 51°15.229 2°50.302 274.2 12.8 267 11.8
2006-08-25 06:51:01 51°15.228 2°50.273 273.6 12.7 268 11.9
2006-08-25 06:51:06 51°15.228 2°50.245 274.3 12.8 268 12
2006-08-25 06:51:11 51°15.228 2°50.217 275.3 12.8 269 11.9
2006-08-25 06:51:16 51°15.227 2°50.189 275.9 12.7 269 11.9
2006-08-25 06:51:21 51°15.227 2°50.16 275.8 12.8 268 11.9
2006-08-25 06:51:26 51°15.226 2°50.133 275.1 12.8 269 11.7
2006-08-25 06:51:31 51°15.226 2°50.105 275.2 12.8 269 11.8
2006-08-25 06:51:35 51°15.225 2°50.082 275.9 12.7 269 11.7
2006-08-25 06:51:41 51°15.226 2°50.047 276.8 12.7 270 11.8
2006-08-25 06:51:46 51°15.226 2°50.02 276.9 12.8 270 11.7
2006-08-25 06:51:51 51°15.225 2°49.992 276.5 12.7 270 11.8
2006-08-25 06:51:56 51°15.226 2°49.963 277.2 12.7 270 11.9
2006-08-25 06:52:01 51°15.226 2°49.936 277.3 12.7 270 11.8
2006-08-25 06:52:06 51°15.226 2°49.908 276.9 12.7 270 11.8
2006-08-25 06:52:11 51°15.225 2°49.879 277 12.8 269 11.9
2006-08-25 06:52:16 51°15.226 2°49.852 276.9 12.7 271 11.9
2006-08-25 06:52:21 51°15.225 2°49.824 276 12.8 268 11.9
2006-08-25 06:52:25 51°15.225 2°49.801 276.5 12.8 270 11.8
2006-08-25 06:52:31 51°15.226 2°49.767 277.5 12.8 271 11.8
2006-08-25 06:52:36 51°15.225 2°49.739 277.4 12.7 271 11.7
2006-08-25 06:52:41 51°15.226 2°49.71 277 12.7 269 11.9
2006-08-25 06:52:46 51°15.225 2°49.683 277.2 12.8 269 11.8
2006-08-25 06:52:50 51°15.225 2°49.661 276.3 12.6 270 11.5
2006-08-25 06:52:56 51°15.225 2°49.626 275.2 12.7 268 11.6
2006-08-25 06:53:01 51°15.224 2°49.598 276.7 12.6 270 11.6
2006-08-25 06:53:06 51°15.224 2°49.569 276.8 12.6 270 11.8
2006-08-25 06:53:11 51°15.224 2°49.542 275.8 12.7 270 11.8
2006-08-25 06:53:16 51°15.224 2°49.514 276.6 12.6 269 11.7
2006-08-25 06:53:20 51°15.224 2°49.492 275.8 12.7 270 11.8
2006-08-25 06:53:26 51°15.223 2°49.458 275.1 12.8 269 11.9
2006-08-25 06:53:31 51°15.223 2°49.429 275.5 12.8 271 11.8
2006-08-25 06:53:36 51°15.223 2°49.401 276.2 12.7 269 11.7
2006-08-25 06:53:41 51°15.223 2°49.373 276.4 12.8 270 11.7
2006-08-25 06:53:46 51°15.223 2°49.345 276.7 12.7 271 11.6
2006-08-25 06:53:51 51°15.223 2°49.316 276.7 12.7 270 11.9
2006-08-25 06:53:56 51°15.223 2°49.288 276.5 12.7 270 11.8
2006-08-25 06:54:01 51°15.223 2°49.26 276.5 12.8 270 11.9
2006-08-25 06:54:06 51°15.223 2°49.232 276.2 12.8 269 11.8
2006-08-25 06:54:11 51°15.222 2°49.204 276 12.7 270 11.8
2006-08-25 06:54:16 51°15.222 2°49.175 275.6 12.8 269 11.9
2006-08-25 06:54:20 51°15.222 2°49.152 275.5 12.8 268 11.8
2006-08-25 06:54:26 51°15.22 2°49.118 275 12.7 267 12.1
2006-08-25 06:54:30 51°15.22 2°49.096 274.6 12.8 268 11.9
2006-08-25 06:54:36 51°15.22 2°49.062 275.2 12.8 270 11.8
2006-08-25 06:54:41 51°15.22 2°49.035 276 12.7 270 11.8
2006-08-25 06:54:46 51°15.22 2°49.005 276.4 12.7 269 11.9
2006-08-25 06:54:50 51°15.22 2°48.983 276.5 12.8 270 12
2006-08-25 06:54:56 51°15.219 2°48.949 275.9 12.6 270 12
2006-08-25 06:55:01 51°15.219 2°48.921 275.5 12.8 269 12.1
2006-08-25 06:55:06 51°15.219 2°48.893 275.3 12.7 269 12
2006-08-25 06:55:11 51°15.218 2°48.866 274.4 12.7 269 11.8
2006-08-25 06:55:16 51°15.218 2°48.837 275 12.8 269 12
2006-08-25 06:55:21 51°15.218 2°48.809 275.6 12.7 271 11.9
2006-08-25 06:55:26 51°15.218 2°48.781 276.4 12.7 270 11.9
2006-08-25 06:55:31 51°15.218 2°48.753 276.7 12.7 270 12
2006-08-25 06:55:36 51°15.218 2°48.725 276.5 12.7 271 12
2006-08-25 06:55:41 51°15.218 2°48.697 276 12.6 270 12.2
2006-08-25 06:55:45 51°15.217 2°48.675 275.4 12.7 268 12
2006-08-25 06:55:51 51°15.217 2°48.641 274.6 12.6 269 11.9
2006-08-25 06:55:56 51°15.216 2°48.613 274.7 12.7 269 11.9
2006-08-25 06:56:01 51°15.216 2°48.585 274.9 12.7 269 11.9
2006-08-25 06:56:05 51°15.216 2°48.563 275.5 12.7 269 12.1
2006-08-25 06:56:11 51°15.216 2°48.53 275.8 12.7 268 11.9
2006-08-25 06:56:15 51°15.216 2°48.507 274.8 12.6 269 11.9
2006-08-25 06:56:21 51°15.215 2°48.473 275.2 12.6 269 11.9
2006-08-25 06:56:26 51°15.215 2°48.445 276.2 12.6 270 11.9
2006-08-25 06:56:31 51°15.215 2°48.417 276.2 12.7 269 12
2006-08-25 06:56:36 51°15.215 2°48.389 275.8 12.7 270 11.9
2006-08-25 06:56:41 51°15.215 2°48.361 275.8 12.7 269 11.8
2006-08-25 06:56:46 51°15.215 2°48.333 275.8 12.7 270 11.7
2006-08-25 06:56:51 51°15.214 2°48.305 275.1 12.7 269 11.4
2006-08-25 06:56:56 51°15.214 2°48.276 274.3 12.7 269 11.4
2006-08-25 06:57:01 51°15.214 2°48.249 274.9 12.7 269 11.2
2006-08-25 06:57:05 51°15.214 2°48.226 275.1 12.7 270 10.9
2006-08-25 06:57:11 51°15.213 2°48.193 275.8 12.8 270 10.7
2006-08-25 06:57:16 51°15.214 2°48.165 276.5 12.6 270 10.7
2006-08-25 06:57:21 51°15.214 2°48.137 276.7 12.6 271 10.5
2006-08-25 06:57:25 51°15.215 2°48.115 277.4 12.6 273 10.3
2006-08-25 06:57:31 51°15.215 2°48.081 277.9 12.6 271 10.1
2006-08-25 06:57:36 51°15.216 2°48.053 278.3 12.5 272 9.9
2006-08-25 06:57:41 51°15.217 2°48.026 278.2 12.6 273 9.9
2006-08-25 06:57:45 51°15.217 2°48.004 278.7 12.5 272 9.5
2006-08-25 06:57:51 51°15.218 2°47.971 278.2 12.5 271 9.4
2006-08-25 06:57:55 51°15.218 2°47.949 277.5 12.4 271 9.3
2006-08-25 06:58:01 51°15.218 2°47.916 276.9 12.5 271 9.1
2006-08-25 06:58:05 51°15.219 2°47.894 276.6 12.5 272 9.1
2006-08-25 06:58:11 51°15.219 2°47.861 276.8 12.5 269 9
2006-08-25 06:58:16 51°15.217 2°47.834 275.2 12.3 268 8.6
2006-08-25 06:58:21 51°15.217 2°47.805 274.7 12.4 268 8.6
2006-08-25 06:58:26 51°15.217 2°47.778 274.3 12.4 269 8.5
2006-08-25 06:58:31 51°15.217 2°47.751 274.7 12.4 269 8.5
2006-08-25 06:58:35 51°15.217 2°47.729 275.7 12.5 271 8.5
2006-08-25 06:58:41 51°15.218 2°47.696 276.5 12.4 271 8.7
2006-08-25 06:58:46 51°15.218 2°47.669 277.2 12.4 271 8.8
2006-08-25 06:58:51 51°15.219 2°47.641 277.6 12.4 272 8.8
2006-08-25 06:58:56 51°15.219 2°47.614 277.8 12.5 273 8.8
2006-08-25 06:59:01 51°15.22 2°47.585 277.7 12.5 272 8.8
2006-08-25 06:59:05 51°15.22 2°47.563 277.2 12.6 271 8.8
2006-08-25 06:59:11 51°15.22 2°47.531 276.3 12.5 270 8.7
2006-08-25 06:59:16 51°15.221 2°47.503 275.8 12.5 270 8.7
2006-08-25 06:59:21 51°15.22 2°47.475 275.6 12.5 269 8.7
2006-08-25 06:59:25 51°15.22 2°47.453 274.9 12.6 270 8.6
2006-08-25 06:59:31 51°15.22 2°47.42 275.4 12.5 270 8.6
2006-08-25 06:59:35 51°15.22 2°47.397 276.5 12.5 270 8.5
2006-08-25 06:59:41 51°15.22 2°47.365 275.3 12.4 270 8.5
2006-08-25 06:59:46 51°15.22 2°47.337 275.7 12.5 270 8.5
2006-08-25 06:59:51 51°15.22 2°47.309 275.8 12.5 272 8.6
2006-08-25 06:59:56 51°15.221 2°47.282 276.2 12.5 270 8.8
2006-08-25 07:00:01 51°15.221 2°47.255 276 12.5 270 8.8
2006-08-25 07:00:06 51°15.221 2°47.227 276.1 12.5 271 9
2006-08-25 07:00:11 51°15.221 2°47.199 276 12.5 270 9.2
2006-08-25 07:00:16 51°15.221 2°47.171 276.3 12.5 270 9.1
2006-08-25 07:00:21 51°15.221 2°47.144 276.3 12.5 272 9.2
2006-08-25 07:00:26 51°15.222 2°47.116 277.2 12.5 272 9.2
2006-08-25 07:00:31 51°15.223 2°47.089 278.2 12.5 273 9.3
2006-08-25 07:00:35 51°15.224 2°47.066 278.8 12.5 273 9.4
2006-08-25 07:00:41 51°15.225 2°47.034 278.6 12.4 273 9.3
2006-08-25 07:00:46 51°15.225 2°47.006 278.4 12.5 274 9.4
2006-08-25 07:00:50 51°15.227 2°46.984 279.1 12.5 274 9.6
2006-08-25 07:00:56 51°15.227 2°46.951 279 12.5 273 9.7
2006-08-25 07:01:01 51°15.228 2°46.924 278.5 12.5 272 9.8
2006-08-25 07:01:05 51°15.228 2°46.901 277.5 12.6 271 10.1
2006-08-25 07:01:11 51°15.229 2°46.869 277.5 12.5 272 10.1
2006-08-25 07:01:16 51°15.229 2°46.84 276.9 12.6 270 10.4
2006-08-25 07:01:21 51°15.23 2°46.813 277.1 12.6 272 10.4
2006-08-25 07:01:26 51°15.231 2°46.785 277.3 12.5 272 10.3
2006-08-25 07:01:31 51°15.231 2°46.757 278.1 12.6 273 10.5
2006-08-25 07:01:36 51°15.232 2°46.73 278.4 12.5 272 10.5
2006-08-25 07:01:41 51°15.233 2°46.701 278.2 12.6 272 10.6
2006-08-25 07:01:45 51°15.233 2°46.679 278.1 12.6 272 10.6
2006-08-25 07:01:51 51°15.234 2°46.646 277.5 12.5 271 10.8
2006-08-25 07:01:56 51°15.234 2°46.619 276.6 12.5 271 10.8
2006-08-25 07:02:01 51°15.235 2°46.591 277 12.6 272 11
2006-08-25 07:02:05 51°15.235 2°46.569 277.9 12.5 273 11.2
2006-08-25 07:02:11 51°15.236 2°46.535 278.6 12.6 272 11.3
2006-08-25 07:02:16 51°15.237 2°46.507 278.3 12.6 272 11.5
2006-08-25 07:02:21 51°15.237 2°46.479 277.8 12.6 272 11.6
2006-08-25 07:02:26 51°15.238 2°46.451 277.6 12.7 272 11.8
2006-08-25 07:02:31 51°15.238 2°46.424 277.1 12.6 271 11.8
2006-08-25 07:02:36 51°15.239 2°46.395 277.9 12.6 273 12
2006-08-25 07:02:41 51°15.24 2°46.368 278.2 12.5 272 12
2006-08-25 07:02:46 51°15.24 2°46.34 278.4 12.6 271 12.4
2006-08-25 07:02:51 51°15.241 2°46.312 278.3 12.7 272 12.4
2006-08-25 07:02:55 51°15.242 2°46.29 278.5 12.7 273 12.5
2006-08-25 07:03:01 51°15.243 2°46.256 278.6 12.7 273 12.7
2006-08-25 07:03:06 51°15.243 2°46.228 278.1 12.7 272 12.7
2006-08-25 07:03:11 51°15.244 2°46.199 278 12.7 271 12.9
2006-08-25 07:03:16 51°15.245 2°46.172 279.4 12.7 272 13
2006-08-25 07:03:21 51°15.245 2°46.144 278.6 12.6 272 12.9
2006-08-25 07:03:26 51°15.246 2°46.115 278.7 12.6 272 13
2006-08-25 07:03:31 51°15.247 2°46.088 278.7 12.6 273 13.1
2006-08-25 07:03:36 51°15.247 2°46.06 278.7 12.7 271 13.2
2006-08-25 07:03:41 51°15.248 2°46.032 278.7 12.7 273 13.4
2006-08-25 07:03:46 51°15.249 2°46.005 278.3 12.6 271 13.4
2006-08-25 07:03:51 51°15.249 2°45.976 278 12.4 272 13.5
2006-08-25 07:03:55 51°15.249 2°45.954 277.8 12.5 272 13.7
2006-08-25 07:04:01 51°15.25 2°45.921 278.4 12.5 273 13.7
2006-08-25 07:04:06 51°15.251 2°45.893 277.9 12.5 272 13.9
2006-08-25 07:04:11 51°15.251 2°45.865 278 12.6 272 14
2006-08-25 07:04:16 51°15.252 2°45.838 277.7 12.7 272 14.2
2006-08-25 07:04:21 51°15.252 2°45.81 278.5 12.6 271 14.3
2006-08-25 07:04:25 51°15.253 2°45.788 279 12.6 273 14.5
2006-08-25 07:04:31 51°15.254 2°45.754 278.7 12.7 272 14.5
2006-08-25 07:04:36 51°15.255 2°45.726 279.2 12.6 273 14.6
2006-08-25 07:04:40 51°15.255 2°45.704 279 12.7 272 14.7
2006-08-25 07:04:45 51°15.257 2°45.675 279.8 12.6 274 14.4
2006-08-25 07:04:51 51°15.257 2°45.642 279.7 12.5 272 14.6
2006-08-25 07:04:56 51°15.258 2°45.614 279.7 12.6 273 14.8
2006-08-25 07:05:01 51°15.258 2°45.587 279.5 12.6 272 14.6
2006-08-25 07:05:06 51°15.259 2°45.558 279.4 12.5 273 14.8
2006-08-25 07:05:09 51°15.26 2°45.542 279.2 12.7 271 14.9
2006-08-25 07:05:16 51°15.261 2°45.503 279.9 12.6 274 15
2006-08-25 07:05:21 51°15.262 2°45.475 279.7 12.7 272 15.1
2006-08-25 07:05:26 51°15.263 2°45.447 280.1 12.6 274 15.2
2006-08-25 07:05:31 51°15.264 2°45.418 279.5 12.6 272 15.3
2006-08-25 07:05:36 51°15.265 2°45.391 279.4 12.7 273 15.4
2006-08-25 07:05:41 51°15.266 2°45.363 280 12.7 274 15.4
2006-08-25 07:05:46 51°15.267 2°45.336 279.9 12.7 273 15.3
2006-08-25 07:05:51 51°15.268 2°45.307 280.3 12.7 273 15.6
2006-08-25 07:05:56 51°15.269 2°45.279 280.4 12.6 274 15.6
2006-08-25 07:06:01 51°15.27 2°45.251 280.1 12.7 273 15.9
2006-08-25 07:06:05 51°15.271 2°45.228 280.9 12.7 274 15.8
2006-08-25 07:06:11 51°15.272 2°45.195 280.8 12.6 274 16
2006-08-25 07:06:16 51°15.273 2°45.167 281.2 12.8 274 16.2
2006-08-25 07:06:21 51°15.275 2°45.14 281.2 12.8 274 16.2
2006-08-25 07:06:26 51°15.275 2°45.112 280.5 12.6 274 16.2
2006-08-25 07:06:31 51°15.276 2°45.083 280.5 12.6 273 16.6
2006-08-25 07:06:35 51°15.277 2°45.061 279.5 12.7 272 16.6
2006-08-25 07:06:41 51°15.278 2°45.027 279.3 12.7 273 16.7
2006-08-25 07:06:46 51°15.278 2°45 278.7 12.8 272 16.7
2006-08-25 07:06:50 51°15.279 2°44.977 279.4 12.8 272 16.9
2006-08-25 07:06:56 51°15.28 2°44.943 278.7 12.8 272 17.1
2006-08-25 07:07:01 51°15.28 2°44.914 279.1 12.9 272 17.1
2006-08-25 07:07:05 51°15.281 2°44.892 278.8 12.8 272 17.1
2006-08-25 07:07:11 51°15.282 2°44.857 278.8 12.8 272 17.2
2006-08-25 07:07:16 51°15.282 2°44.831 279.1 12.7 272 17
2006-08-25 07:07:21 51°15.282 2°44.802 278 12.7 270 16.7
2006-08-25 07:07:26 51°15.283 2°44.773 279.4 12.6 273 16.8
2006-08-25 07:07:31 51°15.282 2°44.745 278.9 12.6 271 16.9
2006-08-25 07:07:36 51°15.284 2°44.717 279 12.7 273 17.1
2006-08-25 07:07:41 51°15.284 2°44.691 279.4 12.6 271 16.8
2006-08-25 07:07:45 51°15.285 2°44.668 279.5 12.6 274 16.9
2006-08-25 07:07:51 51°15.286 2°44.634 280 12.7 272 16.8
2006-08-25 07:07:56 51°15.286 2°44.607 280 12.6 273 16.7
2006-08-25 07:08:01 51°15.287 2°44.578 279.6 12.5 272 16.7
2006-08-25 07:08:05 51°15.287 2°44.556 279.9 12.7 271 16.5
2006-08-25 07:08:10 51°15.288 2°44.528 279.4 12.7 273 16.3
2006-08-25 07:08:16 51°15.289 2°44.495 280 12.7 272 16
2006-08-25 07:08:21 51°15.291 2°44.468 279.7 12.6 274 15.8
2006-08-25 07:08:25 51°15.291 2°44.446 280.6 12.5 274 15.8
2006-08-25 07:08:31 51°15.293 2°44.411 280.4 12.6 272 15.7
2006-08-25 07:08:36 51°15.294 2°44.384 281.5 12.6 274 15.4
2006-08-25 07:08:41 51°15.295 2°44.357 281.3 12.5 273 15.2
2006-08-25 07:08:46 51°15.296 2°44.329 281.3 12.6 274 14.7
2006-08-25 07:08:51 51°15.298 2°44.3 282 12.5 275 14.7
2006-08-25 07:08:55 51°15.299 2°44.279 281.1 12.6 273 14.3
2006-08-25 07:09:01 51°15.3 2°44.245 281.4 12.5 274 14.5
2006-08-25 07:09:06 51°15.301 2°44.218 281.1 12.6 274 14.2
2006-08-25 07:09:10 51°15.303 2°44.196 281.7 12.5 276 14
2006-08-25 07:09:15 51°15.304 2°44.168 281.9 12.6 274 12.4
2006-08-25 07:09:21 51°15.306 2°44.134 281.6 12.6 275 12.8
2006-08-25 07:09:25 51°15.307 2°44.113 281.6 12.6 274 13.2
2006-08-25 07:09:31 51°15.308 2°44.08 281.1 12.5 274 13.2
2006-08-25 07:09:36 51°15.31 2°44.051 281.2 12.6 275 11.3
2006-08-25 07:09:41 51°15.311 2°44.024 281.3 12.6 274 12.1
2006-08-25 07:09:46 51°15.312 2°43.995 280.9 12.6 274 12.6
2006-08-25 07:09:51 51°15.314 2°43.968 280.8 12.6 274 12.7
2006-08-25 07:09:56 51°15.316 2°43.94 281.4 12.7 276 12.3
2006-08-25 07:10:01 51°15.318 2°43.913 282.5 12.6 277 12.2
2006-08-25 07:10:06 51°15.32 2°43.885 283.1 12.5 277 12.2
2006-08-25 07:10:11 51°15.321 2°43.858 282.6 12.6 275 12
2006-08-25 07:10:16 51°15.323 2°43.83 283.2 12.5 277 12
2006-08-25 07:10:21 51°15.325 2°43.802 283.4 12.5 276 12
2006-08-25 07:10:25 51°15.327 2°43.78 283.1 12.6 277 12
2006-08-25 07:10:30 51°15.329 2°43.753 283 12.6 276 11.9
2006-08-25 07:10:35 51°15.331 2°43.725 283 12.5 276 11.9
2006-08-25 07:10:41 51°15.332 2°43.693 282.6 12.4 276 11.8
2006-08-25 07:10:45 51°15.333 2°43.669 282.2 12.5 273 12
2006-08-25 07:10:51 51°15.335 2°43.638 280.7 12.6 274 11.9
2006-08-25 07:10:56 51°15.336 2°43.61 281.3 12.4 275 11.8
2006-08-25 07:11:01 51°15.338 2°43.582 281 12.4 274 11.8
2006-08-25 07:11:06 51°15.339 2°43.555 281.1 12.6 275 12
2006-08-25 07:11:11 51°15.341 2°43.527 281.4 12.6 275 12
2006-08-25 07:11:16 51°15.342 2°43.5 281.5 12.5 276 12
2006-08-25 07:11:21 51°15.343 2°43.472 281 12.5 275 12.1
2006-08-25 07:11:26 51°15.345 2°43.444 280.7 12.6 274 12.2
2006-08-25 07:11:31 51°15.346 2°43.416 281.1 12.6 275 12.2
2006-08-25 07:11:36 51°15.348 2°43.389 281.6 12.5 275 12.2
2006-08-25 07:11:41 51°15.35 2°43.361 281.2 12.5 275 12.3
2006-08-25 07:11:46 51°15.351 2°43.334 282.1 12.5 276 12.4
2006-08-25 07:11:51 51°15.353 2°43.306 282.1 12.6 275 12.4
2006-08-25 07:11:56 51°15.354 2°43.279 281.6 12.6 275 12.3
2006-08-25 07:12:01 51°15.355 2°43.251 280.8 12.5 272 11.9
2006-08-25 07:12:06 51°15.355 2°43.223 278.6 12.6 270 10.5
2006-08-25 07:12:11 51°15.355 2°43.197 276.7 12.5 269 11.5
2006-08-25 07:12:15 51°15.354 2°43.175 275.8 12.3 268 11.7
2006-08-25 07:12:21 51°15.353 2°43.141 274.4 12.4 268 12
2006-08-25 07:12:26 51°15.352 2°43.113 273.3 12.5 266 12.1
2006-08-25 07:12:31 51°15.351 2°43.086 271.9 12.6 265 12.2
2006-08-25 07:12:36 51°15.349 2°43.058 271 12.6 265 12.4
2006-08-25 07:12:41 51°15.347 2°43.031 270 12.6 264 12.4
2006-08-25 07:12:46 51°15.344 2°43.002 269.1 12.6 262 12.6
2006-08-25 07:12:51 51°15.343 2°42.975 269.4 12.6 265 12.5
2006-08-25 07:12:56 51°15.341 2°42.947 268.8 12.7 263 12.6
2006-08-25 07:13:01 51°15.339 2°42.919 269.2 12.6 265 11.7
2006-08-25 07:13:05 51°15.338 2°42.897 269 12.7 263 11.1
2006-08-25 07:13:11 51°15.335 2°42.865 268.4 12.8 262 11.5
2006-08-25 07:13:16 51°15.333 2°42.836 268.5 12.6 262 9.8
2006-08-25 07:13:21 51°15.331 2°42.808 268.2 12.6 264 11.5
2006-08-25 07:13:25 51°15.329 2°42.786 268 12.7 263 11.7
2006-08-25 07:13:30 51°15.327 2°42.759 268.3 12.7 263 11.5
2006-08-25 07:13:35 51°15.325 2°42.731 269 12.7 263 10.5
2006-08-25 07:13:41 51°15.323 2°42.697 269.4 12.7 264 11
2006-08-25 07:13:45 51°15.322 2°42.675 269.8 12.6 265 10.9
2006-08-25 07:13:51 51°15.319 2°42.641 270 12.7 263 10.7
2006-08-25 07:13:56 51°15.318 2°42.614 270.7 12.6 265 11.4
2006-08-25 07:14:01 51°15.316 2°42.585 270.6 12.7 265 11.2
2006-08-25 07:14:06 51°15.315 2°42.558 270.1 12.7 266 11
2006-08-25 07:14:11 51°15.313 2°42.531 270.4 12.7 264 10.5
2006-08-25 07:14:16 51°15.311 2°42.503 269.1 12.6 262 9.7
2006-08-25 07:14:21 51°15.309 2°42.475 268.8 12.6 264 10.6
2006-08-25 07:14:26 51°15.308 2°42.447 268.8 12.6 266 10.9
2006-08-25 07:14:29 51°15.307 2°42.431 271 12.6 267 11.2
2006-08-25 07:14:36 51°15.307 2°42.392 273.9 12.5 269 10.8
2006-08-25 07:14:41 51°15.307 2°42.365 274.7 12.5 269 10.4
2006-08-25 07:14:45 51°15.306 2°42.343 275.3 12.4 269 9.8
2006-08-25 07:14:51 51°15.307 2°42.31 276 12.4 270 9
2006-08-25 07:14:56 51°15.307 2°42.282 276.1 12.2 270 9.1
2006-08-25 07:15:01 51°15.307 2°42.258 276.3 11.5 269 10.4
2006-08-25 07:15:06 51°15.307 2°42.234 277.8 10.8 272 10.4
2006-08-25 07:15:10 51°15.308 2°42.215 278.5 10.2 272 10.2
2006-08-25 07:15:16 51°15.309 2°42.193 280.6 9.6 274 9.5
2006-08-25 07:15:21 51°15.31 2°42.173 283.8 8.8 278 8.5
2006-08-25 07:15:26 51°15.312 2°42.156 286.8 8.2 279 9.6
2006-08-25 07:15:31 51°15.315 2°42.139 289.7 7.8 281 10.1
2006-08-25 07:15:36 51°15.317 2°42.124 293.5 7.2 285 10
2006-08-25 07:15:41 51°15.321 2°42.11 298.3 6.8 289 9.8
2006-08-25 07:15:46 51°15.324 2°42.098 303.6 6.1 293 9.6
2006-08-25 07:15:50 51°15.326 2°42.089 308.4 5.6 294 9.7
2006-08-25 07:15:56 51°15.33 2°42.076 311.7 5.4 293 9.6
2006-08-25 07:16:01 51°15.333 2°42.066 313.1 5.1 295 9.6
2006-08-25 07:16:05 51°15.335 2°42.059 314.3 4.8 295 9.6
2006-08-25 07:16:10 51°15.338 2°42.05 315.4 4.5 295 9.7
2006-08-25 07:16:15 51°15.341 2°42.041 316.1 4.3 296 9.7
2006-08-25 07:16:21 51°15.344 2°42.032 316.7 4.1 297 9.6
2006-08-25 07:16:25 51°15.346 2°42.026 318.2 3.9 299 9.7
2006-08-25 07:16:31 51°15.349 2°42.017 320.6 3.7 300 9.7
2006-08-25 07:16:36 51°15.352 2°42.01 323.3 3.4 297 10
2006-08-25 07:16:41 51°15.354 2°42.004 325.1 3.1 296 9.8
2006-08-25 07:16:46 51°15.355 2°41.998 325.5 3 294 9.7
2006-08-25 07:16:51 51°15.357 2°41.992 325.6 2.9 297 9.6
2006-08-25 07:16:55 51°15.358 2°41.988 325.9 2.9 296 9.5
2006-08-25 07:17:01 51°15.361 2°41.981 326.4 2.9 298 9.6
2006-08-25 07:17:06 51°15.363 2°41.975 326.9 3 300 9.7
2006-08-25 07:17:10 51°15.365 2°41.971 327.1 3 300 9.7
2006-08-25 07:17:16 51°15.367 2°41.964 327.6 3.1 302 9.8
2006-08-25 07:17:21 51°15.37 2°41.958 328.7 3.1 304 9.8
2006-08-25 07:17:25 51°15.372 2°41.954 330.2 3 306 9.7
2006-08-25 07:17:31 51°15.375 2°41.948 332 2.9 307 9.7
2006-08-25 07:17:36 51°15.377 2°41.943 333.5 2.9 306 9.4
2006-08-25 07:17:41 51°15.379 2°41.938 335 2.8 306 9.5
2006-08-25 07:17:45 51°15.381 2°41.934 336.4 2.7 307 9.4
2006-08-25 07:17:51 51°15.384 2°41.929 338 2.7 311 9.5
2006-08-25 07:17:56 51°15.386 2°41.924 339.1 2.7 311 9.5
2006-08-25 07:18:01 51°15.389 2°41.92 340.1 2.7 310 9.5
2006-08-25 07:18:06 51°15.391 2°41.916 341.3 2.6 316 9.5
2006-08-25 07:18:11 51°15.394 2°41.912 342.1 2.6 315 9.6
2006-08-25 07:18:16 51°15.397 2°41.908 343.1 2.6 318 9.5
2006-08-25 07:18:21 51°15.4 2°41.905 344 2.6 318 9.5
2006-08-25 07:18:26 51°15.402 2°41.901 344.7 2.6 321 9.4
2006-08-25 07:18:31 51°15.405 2°41.897 344.7 2.6 320 9.3
2006-08-25 07:18:36 51°15.406 2°41.894 345.4 2.3 315 9.1
2006-08-25 07:18:41 51°15.408 2°41.891 345.7 2.3 318 9.1
2006-08-25 07:18:45 51°15.411 2°41.888 346.2 2.4 319 9.1
2006-08-25 07:18:50 51°15.414 2°41.885 346.8 2.4 322 9.1
2006-08-25 07:18:56 51°15.416 2°41.88 346.9 2.4 319 9.2
2006-08-25 07:19:01 51°15.418 2°41.877 346.8 2.2 323 9.2
2006-08-25 07:19:06 51°15.421 2°41.874 346.8 2.3 319 9.2
2006-08-25 07:19:11 51°15.423 2°41.871 346.8 2.2 322 9.4
2006-08-25 07:19:15 51°15.425 2°41.868 346.9 2.3 320 9.5
2006-08-25 07:19:21 51°15.429 2°41.864 346.8 2.3 322 9.4
2006-08-25 07:19:26 51°15.431 2°41.861 346.2 2.3 322 9.3
2006-08-25 07:19:31 51°15.433 2°41.858 345.5 2.3 320 9.3
2006-08-25 07:19:36 51°15.436 2°41.855 345.2 2.1 316 9.4
2006-08-25 07:19:41 51°15.438 2°41.852 344.7 2 316 9.3
2006-08-25 07:19:46 51°15.44 2°41.849 344 1.9 314 9.4
2006-08-25 07:19:51 51°15.441 2°41.846 343.1 1.9 312 9.5
2006-08-25 07:19:55 51°15.442 2°41.843 342.5 1.8 311 9.4
2006-08-25 07:20:01 51°15.444 2°41.84 342.5 1.8 313 9.4
2006-08-25 07:20:06 51°15.446 2°41.837 342.5 1.6 312 9.4
2006-08-25 07:20:11 51°15.447 2°41.835 342.5 1.7 308 9.3
2006-08-25 07:20:16 51°15.448 2°41.832 342.6 1.5 304 9.3
2006-08-25 07:20:20 51°15.449 2°41.83 342.5 1.3 296 9.4
2006-08-25 07:20:26 51°15.449 2°41.827 342.7 1.2 294 9.4
2006-08-25 07:20:31 51°15.45 2°41.825 342.8 1 284 9.3
2006-08-25 07:20:36 51°15.449 2°41.823 342.8 1 262 9.3
2006-08-25 07:20:40 51°15.449 2°41.821 342.5 0.9 241 9.4
2006-08-25 07:20:45 51°15.448 2°41.82 342.7 1.1 225 9.4
2006-08-25 07:20:51 51°15.446 2°41.818 342.7 1.1 214 9.4
2006-08-25 07:20:56 51°15.445 2°41.817 343.3 1.2 210 9.4
2006-08-25 07:21:01 51°15.443 2°41.816 343.4 1.1 211 9.5
2006-08-25 07:21:06 51°15.442 2°41.814 344.7 1.1 208 9.6
2006-08-25 07:21:11 51°15.44 2°41.813 345.7 1.3 204 5.5
2006-08-25 07:21:16 51°15.438 2°41.812 346.9 1.4 206 -999
2006-08-25 07:21:22 51°15.436 2°41.811 347.8 1.2 200 -999
2006-08-25 07:21:27 51°15.435 2°41.809 349.6 1.3 206 -999
2006-08-25 07:21:31 51°15.433 2°41.809 350.6 1.3 198 9.5
2006-08-25 07:21:36 51°15.432 2°41.808 351.7 1.4 201 9.5
2006-08-25 07:21:41 51°15.43 2°41.807 352.7 1.4 198 9.5
2006-08-25 07:21:45 51°15.428 2°41.806 354.3 1.4 198 9.6
2006-08-25 07:21:51 51°15.426 2°41.804 356.6 1.5 205 9.5
2006-08-25 07:21:55 51°15.425 2°41.803 358.9 1.5 203 9.5
2006-08-25 07:22:01 51°15.422 2°41.802 0.4 1.4 204 9.6
2006-08-25 07:22:06 51°15.42 2°41.8 2.1 1.4 202 9.5
2006-08-25 07:22:11 51°15.418 2°41.799 3.6 1.4 202 9.5
2006-08-25 07:22:16 51°15.417 2°41.798 5.6 1.5 203 9.6
2006-08-25 07:22:21 51°15.415 2°41.796 6.5 1.4 196 9.7
2006-08-25 07:22:26 51°15.413 2°41.795 8.5 1.5 197 9.7
2006-08-25 07:22:31 51°15.411 2°41.794 9.7 1.5 205 9.7
2006-08-25 07:22:36 51°15.409 2°41.793 11.6 1.6 205 9.6
2006-08-25 07:22:41 51°15.407 2°41.791 13 1.7 203 9.7
2006-08-25 07:22:45 51°15.405 2°41.79 14.4 1.7 203 9.8
2006-08-25 07:22:51 51°15.403 2°41.789 15.6 1.6 200 9.7
2006-08-25 07:22:56 51°15.401 2°41.787 17.1 1.7 208 9.6
2006-08-25 07:23:01 51°15.398 2°41.786 18.1 1.6 200 9.7
2006-08-25 07:23:06 51°15.397 2°41.785 19.6 1.7 202 9.8
2006-08-25 07:23:11 51°15.395 2°41.784 21 1.6 199 9.9
2006-08-25 07:23:16 51°15.393 2°41.782 22.5 1.6 203 9.9
2006-08-25 07:23:21 51°15.39 2°41.78 24.1 1.7 209 9.8
2006-08-25 07:23:26 51°15.388 2°41.778 25.5 1.7 205 9.9
2006-08-25 07:23:31 51°15.386 2°41.777 26.9 1.5 204 9.9
2006-08-25 07:23:36 51°15.384 2°41.776 29 1.5 201 9.9
2006-08-25 07:23:41 51°15.382 2°41.774 30.8 1.7 205 9.7
2006-08-25 07:23:46 51°15.381 2°41.773 33.1 1.6 207 9.9
2006-08-25 07:23:51 51°15.379 2°41.771 34.8 1.5 211 9.9
2006-08-25 07:23:55 51°15.377 2°41.77 36.7 1.6 209 10.1
2006-08-25 07:24:00 51°15.375 2°41.768 38.1 1.6 210 10.1
2006-08-25 07:24:05 51°15.373 2°41.766 39.5 1.6 211 10.3
2006-08-25 07:24:10 51°15.372 2°41.764 40.8 1.6 215 10.2
2006-08-25 07:24:16 51°15.369 2°41.762 42.3 1.5 211 10.3
2006-08-25 07:24:21 51°15.367 2°41.759 43.5 1.6 213 10.3
2006-08-25 07:24:26 51°15.366 2°41.758 45 1.6 207 10.2
2006-08-25 07:24:31 51°15.364 2°41.756 47 1.7 215 10.2
2006-08-25 07:24:35 51°15.362 2°41.755 49.9 1.7 210 10.1
2006-08-25 07:24:41 51°15.359 2°41.752 51.9 1.8 218 10
2006-08-25 07:24:45 51°15.358 2°41.749 53.7 1.9 220 9.9
2006-08-25 07:24:51 51°15.356 2°41.747 55.6 1.8 223 9.9
2006-08-25 07:24:55 51°15.354 2°41.745 58.5 1.7 219 9.9
2006-08-25 07:25:01 51°15.352 2°41.742 60.7 1.6 228 9.9
2006-08-25 07:25:06 51°15.35 2°41.74 62.8 1.7 217 10.1
2006-08-25 07:25:10 51°15.349 2°41.738 64.2 1.6 223 10.2
2006-08-25 07:25:16 51°15.347 2°41.735 66 1.7 218 10.3
2006-08-25 07:25:21 51°15.345 2°41.733 67 1.7 220 10.4
2006-08-25 07:25:26 51°15.343 2°41.73 68.1 1.6 225 10.3
2006-08-25 07:25:31 51°15.342 2°41.727 70 1.6 225 10.4
2006-08-25 07:25:36 51°15.34 2°41.725 71.8 1.5 227 10.3
2006-08-25 07:25:41 51°15.338 2°41.723 73.2 1.6 223 10.3
2006-08-25 07:25:46 51°15.337 2°41.721 74.5 1.5 221 10.2
2006-08-25 07:25:51 51°15.335 2°41.718 75.4 1.5 221 10.1
2006-08-25 07:25:55 51°15.334 2°41.717 76.5 1.6 219 10.1
2006-08-25 07:26:01 51°15.332 2°41.713 77.6 1.6 225 10
2006-08-25 07:26:06 51°15.33 2°41.711 79 1.6 229 10.1
2006-08-25 07:26:11 51°15.328 2°41.708 80 1.6 227 10
2006-08-25 07:26:16 51°15.327 2°41.706 81.9 1.6 223 9.9
2006-08-25 07:26:21 51°15.326 2°41.703 83.6 1.6 220 9.8
2006-08-25 07:26:26 51°15.324 2°41.701 84.4 1.6 217 10.1
2006-08-25 07:26:31 51°15.322 2°41.699 85.1 1.5 220 10
2006-08-25 07:26:36 51°15.321 2°41.697 85.6 1.6 218 10.1
2006-08-25 07:26:41 51°15.319 2°41.695 86.3 1.5 220 10.2
2006-08-25 07:26:45 51°15.318 2°41.693 86.9 1.4 226 10.2
2006-08-25 07:26:51 51°15.316 2°41.691 87.6 1.5 217 10.2
2006-08-25 07:26:56 51°15.314 2°41.688 88.3 1.4 223 10.1
2006-08-25 07:27:01 51°15.313 2°41.686 89.3 1.5 218 10.1
2006-08-25 07:27:05 51°15.312 2°41.685 90.2 1.4 218 10.3
2006-08-25 07:27:11 51°15.31 2°41.683 90.8 1.3 217 10.2
2006-08-25 07:27:16 51°15.308 2°41.681 91.1 1.4 220 10.3
2006-08-25 07:27:21 51°15.307 2°41.679 91.5 1.4 221 10.2
2006-08-25 07:27:26 51°15.305 2°41.677 92 1.4 217 10.2
2006-08-25 07:27:31 51°15.304 2°41.676 92.2 1.5 215 10.2
2006-08-25 07:27:36 51°15.302 2°41.674 92.5 1.3 218 10.3
2006-08-25 07:27:41 51°15.301 2°41.672 92.5 1.4 213 10.3
2006-08-25 07:27:46 51°15.299 2°41.671 92.4 1.3 215 10.3
2006-08-25 07:27:51 51°15.298 2°41.669 92.6 1.2 213 10.5
2006-08-25 07:27:56 51°15.297 2°41.668 92.7 1.3 212 10.6
2006-08-25 07:28:01 51°15.295 2°41.667 92.7 1.4 208 10.6
2006-08-25 07:28:05 51°15.294 2°41.665 92.9 1.3 211 10.6
2006-08-25 07:28:10 51°15.292 2°41.664 93.4 1.3 208 10.6
2006-08-25 07:28:15 51°15.291 2°41.663 93.2 1.2 212 10.6
2006-08-25 07:28:21 51°15.289 2°41.661 93.3 1.3 211 10.5
2006-08-25 07:28:26 51°15.288 2°41.66 92.9 1.2 213 10.5
2006-08-25 07:28:31 51°15.287 2°41.658 92.1 1.1 209 10.6
2006-08-25 07:28:35 51°15.285 2°41.657 91.4 1.3 210 10.7
2006-08-25 07:28:41 51°15.284 2°41.656 90.7 1.3 208 10.6
2006-08-25 07:28:46 51°15.282 2°41.655 90 1.3 204 10.5
2006-08-25 07:28:51 51°15.281 2°41.653 89.9 1.1 207 10.4
2006-08-25 07:28:56 51°15.279 2°41.652 89.8 1.2 207 10.4
2006-08-25 07:29:01 51°15.278 2°41.651 89.2 1.1 212 10.3
2006-08-25 07:29:06 51°15.277 2°41.65 88.5 1.2 204 10.5
2006-08-25 07:29:11 51°15.276 2°41.649 87.8 1 209 10.5
2006-08-25 07:29:15 51°15.274 2°41.648 87.1 1.2 201 10.5
2006-08-25 07:29:21 51°15.273 2°41.647 86.2 1.1 207 10.4
2006-08-25 07:29:26 51°15.271 2°41.646 85.6 1.3 204 10.3
2006-08-25 07:29:31 51°15.27 2°41.645 85.1 1.3 206 10.2
2006-08-25 07:29:36 51°15.268 2°41.644 84.5 1.2 205 10.1
2006-08-25 07:29:41 51°15.267 2°41.643 83.9 1.1 207 10.2
2006-08-25 07:29:46 51°15.265 2°41.642 83.4 1.2 202 10.4
2006-08-25 07:29:51 51°15.263 2°41.64 82.8 1.1 208 10.4
2006-08-25 07:29:55 51°15.262 2°41.639 82 1.1 207 10.5
2006-08-25 07:30:01 51°15.261 2°41.639 81 1.1 207 10.6
2006-08-25 07:30:06 51°15.26 2°41.637 80 1.1 209 10.5
2006-08-25 07:30:11 51°15.258 2°41.637 79.1 1.1 209 10.6
2006-08-25 07:30:16 51°15.257 2°41.635 78.2 1 207 10.6
2006-08-25 07:30:21 51°15.256 2°41.635 77.3 1.1 200 10.6
2006-08-25 07:30:26 51°15.254 2°41.634 76.3 1 210 10.5
2006-08-25 07:30:31 51°15.253 2°41.632 75.1 1 211 10.5
2006-08-25 07:30:36 51°15.252 2°41.631 74.2 0.9 205 10.5
2006-08-25 07:30:41 51°15.25 2°41.63 73.3 1.1 201 10.6
2006-08-25 07:30:46 51°15.249 2°41.629 72.7 1 202 10.5
2006-08-25 07:30:51 51°15.247 2°41.628 72.1 1.1 210 10.6
2006-08-25 07:30:56 51°15.246 2°41.627 71.8 1.1 213 10.6
2006-08-25 07:31:01 51°15.244 2°41.625 71.6 1.1 212 10.5
2006-08-25 07:31:06 51°15.243 2°41.624 71.5 1.1 215 10.6
2006-08-25 07:31:11 51°15.242 2°41.622 71.1 1.2 203 10.8
2006-08-25 07:31:16 51°15.24 2°41.622 70.5 1.1 214 10.9
2006-08-25 07:31:21 51°15.239 2°41.62 69.9 1.1 210 10.8
2006-08-25 07:31:26 51°15.237 2°41.619 68.9 1.1 213 10.9
2006-08-25 07:31:31 51°15.236 2°41.618 68.2 1.1 209 10.9
2006-08-25 07:31:36 51°15.235 2°41.616 67.9 1.1 211 10.8
2006-08-25 07:31:41 51°15.233 2°41.615 67.4 1.2 211 10.9
2006-08-25 07:31:46 51°15.232 2°41.614 66.9 1.2 213 11
2006-08-25 07:31:51 51°15.231 2°41.613 66.8 1.1 206 11
2006-08-25 07:31:56 51°15.229 2°41.612 66.5 1 200 11.1
2006-08-25 07:32:01 51°15.228 2°41.613 65.3 0.7 182 11.1
2006-08-25 07:32:06 51°15.228 2°41.613 63.1 0.6 159 11
2006-08-25 07:32:11 51°15.228 2°41.615 59.7 0.4 119 11
2006-08-25 07:32:16 51°15.228 2°41.616 55.5 0.5 87 11.1
2006-08-25 07:32:21 51°15.228 2°41.616 50.7 0.6 58 11.1
2006-08-25 07:32:26 51°15.229 2°41.618 45.7 0.8 51 11
2006-08-25 07:32:31 51°15.23 2°41.618 41 0.8 30 11
2006-08-25 07:32:36 51°15.231 2°41.619 36.3 0.9 27 10.9
2006-08-25 07:32:41 51°15.233 2°41.62 31.1 1.1 13 10.9
2006-08-25 07:32:46 51°15.234 2°41.62 25.8 1.3 7 10.9
2006-08-25 07:32:51 51°15.237 2°41.62 20.2 1.6 358 10.9
2006-08-25 07:32:56 51°15.239 2°41.619 14.6 1.7 352 10.8
2006-08-25 07:33:01 51°15.242 2°41.618 8.9 1.9 347 10.9
2006-08-25 07:33:06 51°15.245 2°41.617 3.6 2.1 342 10.9
2006-08-25 07:33:11 51°15.248 2°41.615 358.8 2.3 337 10.9
2006-08-25 07:33:16 51°15.251 2°41.612 354.1 2.5 334 10.9
2006-08-25 07:33:21 51°15.254 2°41.609 349.7 2.7 331 10.7
2006-08-25 07:33:26 51°15.258 2°41.605 345.4 2.9 327 10.7
2006-08-25 07:33:31 51°15.261 2°41.601 341.8 3.1 323 10.8
2006-08-25 07:33:36 51°15.265 2°41.595 338.1 3.4 319 10.7
2006-08-25 07:33:41 51°15.269 2°41.59 334.5 3.7 317 10.5
2006-08-25 07:33:46 51°15.273 2°41.583 331.3 4.1 315 10.5
2006-08-25 07:33:51 51°15.277 2°41.576 329.5 4.3 313 10.5
2006-08-25 07:33:55 51°15.28 2°41.57 327.2 4.5 312 10.6
2006-08-25 07:34:01 51°15.284 2°41.558 322 4.8 302 10.5
2006-08-25 07:34:06 51°15.287 2°41.548 314.9 5 296 10.5
2006-08-25 07:34:10 51°15.289 2°41.539 307.5 5.1 288 10.3
2006-08-25 07:34:15 51°15.291 2°41.529 299.6 5.2 284 10.4
2006-08-25 07:34:21 51°15.291 2°41.514 291.8 5.5 276 10.5
2006-08-25 07:34:26 51°15.292 2°41.502 286.3 5.6 273 10.4
2006-08-25 07:34:31 51°15.292 2°41.488 284 5.9 272 10.4
2006-08-25 07:34:36 51°15.292 2°41.475 282.5 6.1 273 10.3
2006-08-25 07:34:41 51°15.293 2°41.46 282.4 6.3 273 10.3
2006-08-25 07:34:46 51°15.293 2°41.447 283.7 6.2 274 10.1
2006-08-25 07:34:51 51°15.294 2°41.434 285.7 5.7 275 10.1
2006-08-25 07:34:56 51°15.295 2°41.422 287 5.5 275 10
2006-08-25 07:35:01 51°15.296 2°41.412 287.8 5.1 276 10.1
2006-08-25 07:35:06 51°15.296 2°41.401 289.8 4.7 274 10.2
2006-08-25 07:35:11 51°15.297 2°41.392 291.3 4.2 272 10.2
2006-08-25 07:35:16 51°15.297 2°41.385 292.4 3.8 278 9.9
2006-08-25 07:35:21 51°15.297 2°41.377 294.6 3.6 269 9.7
2006-08-25 07:35:26 51°15.297 2°41.37 296.8 3.1 272 9.7
2006-08-25 07:35:31 51°15.297 2°41.364 299 2.8 268 9.7
2006-08-25 07:35:36 51°15.297 2°41.36 301.5 2.4 271 9.8
2006-08-25 07:35:41 51°15.297 2°41.355 304 2.1 269 9.9
2006-08-25 07:35:45 51°15.296 2°41.353 306.8 1.6 258 9.9
2006-08-25 07:35:51 51°15.295 2°41.349 309.2 1.6 248 10
2006-08-25 07:35:55 51°15.294 2°41.347 311.5 1.4 229 10.1
2006-08-25 07:36:01 51°15.292 2°41.346 314.2 1.2 217 10
2006-08-25 07:36:06 51°15.291 2°41.345 316 1.3 204 10
2006-08-25 07:36:10 51°15.289 2°41.344 316.9 1.4 192 10
2006-08-25 07:36:16 51°15.286 2°41.344 317.6 1.5 190 9.9
2006-08-25 07:36:22 51°15.284 2°41.343 317.7 1.5 183 -999
2006-08-25 07:36:26 51°15.282 2°41.343 317.5 1.6 191 -999
2006-08-25 07:36:32 51°15.28 2°41.342 316.5 1.6 194 -999
2006-08-25 07:36:37 51°15.278 2°41.341 315.8 1.6 188 -999
2006-08-25 07:36:42 51°15.276 2°41.341 315.3 1.5 182 -999
2006-08-25 07:36:47 51°15.273 2°41.34 314.9 1.6 187 -999
2006-08-25 07:36:52 51°15.272 2°41.34 314.1 1.4 186 -999
2006-08-25 07:36:56 51°15.27 2°41.339 312.5 1.7 194 9.8
2006-08-25 07:37:01 51°15.268 2°41.339 311.6 1.5 181 10
2006-08-25 07:37:05 51°15.266 2°41.339 310.6 1.7 185 9.9
2006-08-25 07:37:11 51°15.263 2°41.338 309.1 1.5 181 9.8
2006-08-25 07:37:15 51°15.262 2°41.338 307.3 1.4 187 9.8
2006-08-25 07:37:21 51°15.26 2°41.337 305.9 1.4 193 9.9
2006-08-25 07:37:26 51°15.258 2°41.336 304.3 1.4 205 10
2006-08-25 07:37:31 51°15.257 2°41.334 303.1 1.3 208 10.1
2006-08-25 07:37:36 51°15.255 2°41.333 302.8 1.3 216 10.2
2006-08-25 07:37:41 51°15.254 2°41.332 302.7 1.2 213 10.2
2006-08-25 07:37:46 51°15.252 2°41.33 302 1.5 212 10.3
2006-08-25 07:37:51 51°15.251 2°41.328 301 1.3 214 10.2
2006-08-25 07:37:56 51°15.249 2°41.327 300.3 1.3 212 10.1
2006-08-25 07:38:01 51°15.248 2°41.325 299.4 1.2 210 10.2
2006-08-25 07:38:05 51°15.246 2°41.325 298.6 1.3 207 10.3
2006-08-25 07:38:11 51°15.245 2°41.323 297.5 1.3 206 10.2
2006-08-25 07:38:16 51°15.243 2°41.322 296.1 1.2 206 10.2
2006-08-25 07:38:21 51°15.241 2°41.321 294.7 1.3 208 10.1
2006-08-25 07:38:25 51°15.24 2°41.32 292.7 1.3 204 10.2
2006-08-25 07:38:31 51°15.238 2°41.319 291.5 1.2 203 10.3
2006-08-25 07:38:36 51°15.236 2°41.318 289.9 1.3 200 10.1
2006-08-25 07:38:41 51°15.235 2°41.317 289.7 1.3 199 10.3
2006-08-25 07:38:46 51°15.233 2°41.316 287.8 1.1 200 10.2
2006-08-25 07:38:51 51°15.232 2°41.316 286 1.1 200 10.2
2006-08-25 07:38:56 51°15.23 2°41.315 284.8 1.3 200 10.2
2006-08-25 07:39:01 51°15.229 2°41.314 283.3 1.1 198 10.3
2006-08-25 07:39:06 51°15.227 2°41.313 281.3 1.3 197 10.3
2006-08-25 07:39:10 51°15.225 2°41.313 279.2 1.3 195 10.4
2006-08-25 07:39:16 51°15.223 2°41.312 277.2 1.2 195 10.3
2006-08-25 07:39:21 51°15.222 2°41.311 275.7 1.1 194 10.4
2006-08-25 07:39:26 51°15.221 2°41.31 274.6 1.1 193 10.3
2006-08-25 07:39:31 51°15.219 2°41.31 272.7 1 194 10.2
2006-08-25 07:39:35 51°15.218 2°41.31 271 1.1 190 10.3
2006-08-25 07:39:41 51°15.216 2°41.308 269.5 1.1 195 10.3
2006-08-25 07:39:46 51°15.215 2°41.308 268.1 1.1 196 10.3
2006-08-25 07:39:51 51°15.213 2°41.307 266.9 1.1 197 10.4
2006-08-25 07:39:56 51°15.211 2°41.307 265.5 1.2 195 10.5
2006-08-25 07:40:01 51°15.21 2°41.306 264.1 1.1 199 10.5
2006-08-25 07:40:06 51°15.209 2°41.305 262.7 1.2 200 10.5
2006-08-25 07:40:11 51°15.207 2°41.304 260.8 1.2 204 10.6
2006-08-25 07:40:16 51°15.206 2°41.303 259.2 1.1 200 10.6
2006-08-25 07:40:21 51°15.204 2°41.302 258.1 1.1 198 10.5
2006-08-25 07:40:26 51°15.203 2°41.301 256.9 1.1 199 10.6
2006-08-25 07:40:31 51°15.201 2°41.3 255.3 1 203 10.6
2006-08-25 07:40:36 51°15.2 2°41.3 253.3 1.1 202 10.5
2006-08-25 07:40:41 51°15.198 2°41.298 252 1.1 204 10.5
2006-08-25 07:40:45 51°15.198 2°41.297 250 1.1 207 10.6
2006-08-25 07:40:50 51°15.196 2°41.297 248.3 1 203 10.5
2006-08-25 07:40:56 51°15.194 2°41.296 247.6 1 203 10.5
2006-08-25 07:41:01 51°15.192 2°41.295 246.7 1.2 203 10.4
2006-08-25 07:41:06 51°15.191 2°41.294 245.3 1.1 206 10.4
2006-08-25 07:41:11 51°15.19 2°41.293 243.6 1.1 203 10.4
2006-08-25 07:41:16 51°15.188 2°41.292 242.5 1.1 206 10.5
2006-08-25 07:41:21 51°15.187 2°41.291 241.5 1.1 207 10.5
2006-08-25 07:41:26 51°15.186 2°41.29 240 1.1 200 10.4
2006-08-25 07:41:31 51°15.184 2°41.289 239.1 1.1 207 10.5
2006-08-25 07:41:36 51°15.183 2°41.288 238.1 1.1 204 10.6
2006-08-25 07:41:41 51°15.181 2°41.287 237 1.1 205 10.7
2006-08-25 07:41:46 51°15.18 2°41.286 235.9 1.2 198 10.8
2006-08-25 07:41:51 51°15.178 2°41.285 235.2 1.2 200 10.6
2006-08-25 07:41:56 51°15.177 2°41.284 232.9 1.2 201 10.6
2006-08-25 07:42:01 51°15.175 2°41.283 231.9 1.2 203 10.4
2006-08-25 07:42:06 51°15.174 2°41.283 229.9 1.1 205 10.3
2006-08-25 07:42:11 51°15.173 2°41.281 229.2 1.1 205 10.5
2006-08-25 07:42:16 51°15.171 2°41.28 228.3 1.1 201 10.4
2006-08-25 07:42:21 51°15.17 2°41.279 227.3 1.2 201 10.5
2006-08-25 07:42:26 51°15.168 2°41.277 226.4 1.2 208 10.5
2006-08-25 07:42:31 51°15.167 2°41.276 225.9 1.2 215 10.3
2006-08-25 07:42:35 51°15.165 2°41.275 225.4 1.3 205 10.4
2006-08-25 07:42:41 51°15.164 2°41.274 225 1.2 211 10.3
2006-08-25 07:42:46 51°15.162 2°41.273 224.4 1.3 207 10.2
2006-08-25 07:42:51 51°15.161 2°41.271 224.1 1.2 205 10.3
2006-08-25 07:42:56 51°15.159 2°41.27 223.4 1.3 208 9.9
2006-08-25 07:43:01 51°15.157 2°41.269 223.5 1.2 203 9.9
2006-08-25 07:43:06 51°15.155 2°41.268 223.4 1.2 200 10.1
2006-08-25 07:43:10 51°15.154 2°41.267 223.8 1.3 207 10.1
2006-08-25 07:43:16 51°15.152 2°41.265 224 1.3 209 10.2
2006-08-25 07:43:21 51°15.151 2°41.264 223.6 1.4 208 10.3
2006-08-25 07:43:26 51°15.149 2°41.263 223.6 1.3 206 10.3
2006-08-25 07:43:30 51°15.148 2°41.262 223.9 1.2 203 10.4
2006-08-25 07:43:35 51°15.146 2°41.261 224.4 1.3 206 10.5
2006-08-25 07:43:41 51°15.144 2°41.259 223.8 1.3 208 10.6
2006-08-25 07:43:46 51°15.143 2°41.258 223.4 1.3 204 10.7
2006-08-25 07:43:51 51°15.141 2°41.256 223.6 1.2 206 10.8
2006-08-25 07:43:55 51°15.14 2°41.255 223.4 1.3 205 10.9
2006-08-25 07:44:01 51°15.138 2°41.254 223.1 1.3 204 10.9
2006-08-25 07:44:06 51°15.136 2°41.253 222.8 1.3 208 10.9
2006-08-25 07:44:11 51°15.135 2°41.251 222.8 1.3 208 11
2006-08-25 07:44:16 51°15.134 2°41.25 222.8 1.2 206 10.9
2006-08-25 07:44:21 51°15.132 2°41.249 223.1 1.2 207 10.9
2006-08-25 07:44:26 51°15.13 2°41.248 223.1 1.2 202 10.8
2006-08-25 07:44:31 51°15.129 2°41.247 223.4 1.2 209 10.8
2006-08-25 07:44:36 51°15.127 2°41.246 223.4 1.2 206 10.7
2006-08-25 07:44:41 51°15.126 2°41.244 223.4 1.2 211 10.7
2006-08-25 07:44:46 51°15.124 2°41.243 223.6 1.3 209 10.6
2006-08-25 07:44:51 51°15.123 2°41.242 223.8 1.3 210 10.5
2006-08-25 07:44:56 51°15.121 2°41.24 224.2 1.2 211 10.7
2006-08-25 07:45:01 51°15.119 2°41.239 225.3 1.3 202 10.6
2006-08-25 07:45:06 51°15.118 2°41.238 226.2 1.3 212 10.7
2006-08-25 07:45:11 51°15.116 2°41.236 226.5 1.3 207 10.7
2006-08-25 07:45:16 51°15.115 2°41.234 227.1 1.3 213 10.7
2006-08-25 07:45:21 51°15.113 2°41.233 227.9 1.3 208 10.7
2006-08-25 07:45:26 51°15.112 2°41.232 228.4 1.3 208 10.8
2006-08-25 07:45:31 51°15.11 2°41.231 228.7 1.4 204 10.7
2006-08-25 07:45:36 51°15.108 2°41.23 228.6 1.3 208 10.8
2006-08-25 07:45:41 51°15.107 2°41.229 228.8 1.2 211 10.9
2006-08-25 07:45:46 51°15.105 2°41.228 228.9 1.3 209 10.8
2006-08-25 07:45:51 51°15.104 2°41.226 229 1.3 210 10.9
2006-08-25 07:45:56 51°15.102 2°41.225 228.9 1.3 206 10.9
2006-08-25 07:46:01 51°15.1 2°41.224 228.9 1.3 207 10.8
2006-08-25 07:46:06 51°15.099 2°41.222 228.9 1.2 208 10.8
2006-08-25 07:46:11 51°15.098 2°41.221 228.9 1.3 207 10.7
2006-08-25 07:46:16 51°15.096 2°41.22 228.8 1.3 208 10.6
2006-08-25 07:46:21 51°15.095 2°41.218 228.6 1.3 208 10.6
2006-08-25 07:46:26 51°15.093 2°41.217 228.4 1.3 209 10.6